Time;durP1;ratioP1;P1;durP2;ratioP2;P2;SDS_P1;SDS_P2;PMS_P1;PMS_P2;Temp;Humidity;BMP_temperature;BMP_pressure;BME280_temperature;BME280_humidity;BME280_pressure;Samples;Min_cycle;Max_cycle;Signal;HPM_P1;HPM_P2
2022/09/16 00:00:11;;;;;;;;;;;;;;;;;;;;;
2022/09/16 00:03:33;;;;;;;3.38;1.95;;;11.40;99.90;;;;;;6282352;22;20060;-85
2022/09/16 00:06:34;;;;;;;7.85;2.20;;;12.00;99.90;;;;;;6229096;22;20297;-81
2022/09/16 00:09:00;;;;;;;4.32;1.60;;;11.90;99.90;;;;;;6253348;22;20015;-83
2022/09/16 00:11:33;;;;;;;7.47;1.63;;;12.00;99.90;;;;;;6255317;22;20082;-82
2022/09/16 00:13:59;;;;;;;5.07;1.48;;;12.20;99.90;;;;;;6230431;22;20236;-85
2022/09/16 00:16:27;;;;;;;4.60;1.60;;;12.30;99.90;;;;;;6230280;22;20025;-82
2022/09/16 00:18:59;;;;;;;11.93;1.73;;;12.40;99.90;;;;;;6230799;22;20026;-83
2022/09/16 00:21:26;;;;;;;5.68;1.55;;;12.20;99.90;;;;;;6255480;22;20007;-81
2022/09/16 00:23:52;;;;;;;3.40;1.60;;;12.60;99.90;;;;;;6255281;22;20038;-81
2022/09/16 00:26:18;;;;;;;7.00;1.55;;;12.00;99.90;;;;;;6293640;22;20013;-84
2022/09/16 00:28:47;;;;;;;4.75;1.60;;;12.20;99.90;;;;;;6292303;22;20003;-82
2022/09/16 00:31:13;;;;;;;6.25;1.98;;;12.10;99.90;;;;;;6292793;22;20051;-81
2022/09/16 00:33:39;;;;;;;3.53;1.65;;;12.50;99.90;;;;;;6293729;22;20013;-82
2022/09/16 00:36:12;;;;;;;8.52;2.03;;;12.30;99.90;;;;;;6293192;22;20315;-81
2022/09/16 00:38:39;;;;;;;5.18;1.52;;;12.10;99.90;;;;;;6293454;22;20073;-85
2022/09/16 00:41:33;;;;;;;8.63;2.15;;;12.20;99.90;;;;;;6286286;22;20035;-82
2022/09/16 00:44:36;;;;;;;7.90;1.80;;;12.50;99.90;;;;;;6287276;22;20291;-84
2022/09/16 00:51:19;;;;;;;4.43;1.17;;;12.20;99.90;;;;;;6236692;23;20023;-82
2022/09/16 00:54:09;;;;;;;3.72;1.27;;;12.50;99.90;;;;;;6267019;22;20312;-81
2022/09/16 00:56:49;;;;;;;5.43;1.52;;;10.60;99.90;;;;;;6287720;22;20015;-83
2022/09/16 00:59:23;;;;;;;3.45;1.15;;;12.20;99.90;;;;;;6288303;22;20011;-78
2022/09/16 01:02:17;;;;;;;3.20;1.10;;;12.00;99.90;;;;;;6286954;22;20030;-83
2022/09/16 01:05:06;;;;;;;2.28;1.10;;;10.70;99.90;;;;;;6287516;22;20223;-82
2022/09/16 01:07:47;;;;;;;3.47;1.20;;;13.70;99.90;;;;;;6287798;22;20013;-80
2022/09/16 01:10:27;;;;;;;6.20;1.77;;;12.10;99.90;;;;;;6288705;22;20011;-84
2022/09/16 01:13:05;;;;;;;3.88;1.65;;;12.10;99.90;;;;;;6313152;22;20011;-82
2022/09/16 01:15:41;;;;;;;6.75;1.73;;;11.90;99.90;;;;;;6287926;22;20070;-83
2022/09/16 01:18:45;;;;;;;5.70;1.73;;;12.00;99.90;;;;;;6313238;22;20011;-79
2022/09/16 01:22:07;;;;;;;5.50;1.55;;;12.20;99.90;;;;;;6255201;22;20091;-82
2022/09/16 01:25:06;;;;;;;7.40;1.80;;;12.20;99.90;;;;;;6282835;22;20504;-80
2022/09/16 01:27:58;;;;;;;7.45;1.88;;;12.20;99.90;;;;;;6235832;22;20017;-83
2022/09/16 01:31:27;;;;;;;;;;;;;;;;;;;;;
2022/09/16 01:38:18;;;;;;;7.78;2.33;;;12.20;99.90;;;;;;6091875;23;20015;-83
2022/09/16 01:41:11;;;;;;;5.10;1.77;;;11.90;99.90;;;;;;6049670;23;20082;-80
2022/09/16 01:43:47;;;;;;;5.97;1.52;;;12.00;99.90;;;;;;6051169;23;20025;-80
2022/09/16 01:46:26;;;;;;;3.95;1.42;;;12.10;99.90;;;;;;6170541;23;20059;-83
2022/09/16 01:48:55;;;;;;;4.43;1.48;;;12.20;99.90;;;;;;6278883;22;20061;-87
2022/09/16 01:51:41;;;;;;;6.70;1.63;;;11.80;99.90;;;;;;6294094;22;20048;-84
2022/09/16 01:54:42;;;;;;;5.15;1.27;;;12.20;99.90;;;;;;6293339;22;20038;-84
2022/09/16 01:57:29;;;;;;;8.10;2.10;;;12.20;99.90;;;;;;6168456;23;20016;-82
2022/09/16 02:00:14;;;;;;;;;;;;;;;;;;;;;
2022/09/16 02:03:05;;;;;;;8.85;2.33;;;11.90;99.90;;;;;;6315800;22;20029;-84
2022/09/16 02:05:39;;;;;;;5.13;1.95;;;11.80;99.90;;;;;;6293325;22;20011;-86
2022/09/16 02:08:14;;;;;;;7.63;2.42;;;11.80;99.90;;;;;;6317141;22;20066;-81
2022/09/16 02:11:03;;;;;;;7.38;2.25;;;12.20;99.90;;;;;;6293367;22;20315;-82
2022/09/16 02:13:55;;;;;;;6.07;1.90;;;13.00;99.90;;;;;;6291660;22;20006;-82
2022/09/16 02:16:29;;;;;;;6.38;1.77;;;12.10;99.90;;;;;;6293708;22;20083;-82
2022/09/16 02:19:01;;;;;;;4.38;1.77;;;12.30;99.90;;;;;;6291768;22;20007;-80
2022/09/16 02:21:31;;;;;;;5.38;2.13;;;12.10;99.90;;;;;;6318118;22;20174;-80
2022/09/16 02:24:04;;;;;;;3.88;2.05;;;11.90;99.90;;;;;;6291097;22;20025;-80
2022/09/16 02:26:39;;;;;;;4.22;2.08;;;11.80;99.90;;;;;;6293157;22;20014;-79
2022/09/16 02:29:13;;;;;;;4.57;2.00;;;10.90;99.90;;;;;;6317818;22;20007;-80
2022/09/16 02:35:26;;;;;;;4.97;2.60;;;11.30;99.90;;;;;;6295558;22;20022;-82
2022/09/16 02:39:06;;;;;;;;;;;;;;;;;;;;;
2022/09/16 02:41:44;;;;;;;9.27;2.35;;;13.10;99.90;;;;;;6163715;23;20025;-81
2022/09/16 02:44:11;;;;;;;8.30;1.95;;;11.80;99.90;;;;;;6138515;23;20020;-80
2022/09/16 02:47:10;;;;;;;2.55;1.65;;;12.10;99.90;;;;;;6195860;22;20437;-80
2022/09/16 02:49:53;;;;;;;3.67;1.42;;;11.90;99.90;;;;;;6260909;22;20385;-85
2022/09/16 02:52:34;;;;;;;6.72;1.45;;;11.70;99.90;;;;;;6261944;22;20015;-82
2022/09/16 03:02:28;;;;;;;5.45;1.25;;;11.20;99.90;;;;;;6093459;22;20029;-83
2022/09/16 03:04:54;;;;;;;8.77;1.30;;;11.70;99.90;;;;;;6261132;22;20019;-83
2022/09/16 03:07:19;;;;;;;10.82;1.52;;;12.10;99.90;;;;;;6234757;22;20011;-84
2022/09/16 03:10:18;;;;;;;7.38;1.30;;;12.20;99.90;;;;;;6287058;22;20021;-82
2022/09/16 03:12:56;;;;;;;5.85;1.60;;;11.70;99.90;;;;;;6253009;22;20015;-82
2022/09/16 03:15:33;;;;;;;6.70;1.83;;;11.80;99.90;;;;;;6261083;22;20220;-85
2022/09/16 03:18:15;;;;;;;2.78;1.10;;;12.20;99.90;;;;;;6261258;22;20207;-83
2022/09/16 03:20:44;;;;;;;4.50;1.25;;;11.80;99.90;;;;;;6262022;22;20237;-82
2022/09/16 03:23:30;;;;;;;5.35;1.30;;;11.90;99.90;;;;;;6313200;22;20174;-83
2022/09/16 03:33:52;;;;;;;7.50;2.08;;;10.70;99.90;;;;;;6270995;22;20019;-83
2022/09/16 03:36:27;;;;;;;4.53;1.65;;;11.40;99.90;;;;;;6246483;22;20332;-83
2022/09/16 03:38:55;;;;;;;7.60;1.83;;;11.50;99.90;;;;;;6287558;22;20014;-83
2022/09/16 03:41:23;;;;;;;3.75;2.15;;;11.40;99.90;;;;;;6287946;22;20058;-81
2022/09/16 03:43:59;;;;;;;6.10;1.40;;;12.00;99.90;;;;;;6314606;22;20317;-83
2022/09/16 03:46:27;;;;;;;5.13;1.23;;;11.00;99.90;;;;;;6288097;22;20062;-82
2022/09/16 03:48:54;;;;;;;7.07;1.40;;;11.30;99.90;;;;;;6313874;22;20022;-80
2022/09/16 03:51:20;;;;;;;4.88;1.50;;;11.70;99.90;;;;;;6287934;22;20011;-82
2022/09/16 03:53:46;;;;;;;7.85;1.80;;;13.00;99.90;;;;;;6263507;22;20011;-81
2022/09/16 03:56:15;;;;;;;6.43;1.80;;;11.50;99.90;;;;;;6288902;22;20046;-80
2022/09/16 03:58:43;;;;;;;7.20;1.70;;;11.20;99.90;;;;;;6287949;22;20258;-81
2022/09/16 04:01:11;;;;;;;8.45;1.45;;;11.30;99.90;;;;;;6286835;22;20034;-84
2022/09/16 04:06:55;;;;;;;8.00;1.17;;;12.80;99.90;;;;;;6292558;22;20019;-84
2022/09/16 04:12:42;;;;;;;4.80;1.10;;;11.50;99.90;;;;;;6302221;22;20019;-79
2022/09/16 04:15:08;;;;;;;9.18;1.15;;;11.10;99.90;;;;;;6289176;22;20014;-78
2022/09/16 04:17:37;;;;;;;4.05;1.20;;;11.30;99.90;;;;;;6263668;22;20038;-78
2022/09/16 04:20:04;;;;;;;5.43;1.35;;;11.10;99.90;;;;;;6288153;22;20018;-78
2022/09/16 04:22:30;;;;;;;5.10;1.38;;;11.20;99.90;;;;;;6314486;22;20061;-81
2022/09/16 04:24:56;;;;;;;9.60;2.00;;;11.30;99.90;;;;;;6288239;22;20046;-78
2022/09/16 04:27:22;;;;;;;7.35;1.85;;;11.40;99.90;;;;;;6287980;22;20004;-78
2022/09/16 04:29:50;;;;;;;4.82;2.00;;;11.40;99.90;;;;;;6286033;22;20235;-79
2022/09/16 04:32:25;;;;;;;7.82;1.80;;;11.20;99.90;;;;;;6313519;22;20219;-78
2022/09/16 04:34:56;;;;;;;14.52;2.78;;;11.10;99.90;;;;;;6288128;22;20026;-79
2022/09/16 04:37:22;;;;;;;10.20;2.72;;;11.40;99.90;;;;;;6285614;22;20026;-79
2022/09/16 04:39:48;;;;;;;9.63;3.85;;;11.00;99.90;;;;;;6285655;22;20015;-80
2022/09/16 04:42:14;;;;;;;13.27;3.17;;;11.00;99.90;;;;;;6287101;22;20235;-80
2022/09/16 04:44:43;;;;;;;9.07;2.30;;;11.20;99.90;;;;;;6262054;22;20193;-78
2022/09/16 04:47:11;;;;;;;12.85;1.80;;;11.00;99.90;;;;;;6262926;22;20193;-80
2022/09/16 04:49:41;;;;;;;4.05;1.70;;;10.90;99.90;;;;;;6287400;22;20019;-81
2022/09/16 04:52:06;;;;;;;7.25;1.40;;;10.90;99.90;;;;;;6261845;22;20011;-84
2022/09/16 04:54:32;;;;;;;3.47;1.20;;;10.90;99.90;;;;;;6288726;22;20011;-82
2022/09/16 04:57:00;;;;;;;6.97;1.27;;;11.30;99.90;;;;;;6288298;22;20019;-83
2022/09/16 04:59:26;;;;;;;3.60;1.40;;;10.90;99.90;;;;;;6288782;22;20289;-82
2022/09/16 05:06:12;;;;;;;6.40;1.58;;;12.90;99.90;;;;;;6216105;23;20021;-82
2022/09/16 05:08:41;;;;;;;7.55;2.10;;;11.40;99.90;;;;;;6170073;23;20015;-84
2022/09/16 05:11:18;;;;;;;11.10;2.22;;;13.10;99.90;;;;;;6169373;23;20016;-85
2022/09/16 05:14:28;;;;;;;9.63;2.00;;;11.40;99.90;;;;;;6261130;22;20018;-82
2022/09/16 05:17:41;;;;;;;;;;;;;;;;;;;;;
2022/09/16 05:24:08;;;;;;;5.40;1.80;;;9.70;99.90;;;;;;6233118;22;20015;-85
2022/09/16 05:26:36;;;;;;;8.75;1.85;;;11.00;99.90;;;;;;6230534;22;20023;-84
2022/09/16 05:29:07;;;;;;;5.72;1.65;;;11.40;99.90;;;;;;6228926;22;20077;-83
2022/09/16 05:31:37;;;;;;;6.10;2.22;;;11.30;99.90;;;;;;6256106;22;20026;-83
2022/09/16 05:34:21;;;;;;;7.85;1.50;;;11.30;99.90;;;;;;6228927;22;20258;-82
2022/09/16 05:40:34;;;;;;;6.07;1.63;;;11.50;99.90;;;;;;6158172;23;20021;-84
2022/09/16 05:43:11;;;;;;;8.15;2.13;;;11.20;99.90;;;;;;6112336;23;20053;-87
2022/09/16 05:49:25;;;;;;;10.07;2.00;;;10.60;99.90;;;;;;6096931;23;20394;-83
2022/09/16 05:58:46;;;;;;;11.43;2.55;;;12.60;99.90;;;;;;6106978;23;19930;-83
2022/09/16 06:02:01;;;;;;;12.20;2.72;;;11.30;99.90;;;;;;6136595;23;20302;-78
2022/09/16 06:04:54;;;;;;;10.40;3.67;;;9.70;99.90;;;;;;6198827;23;20060;-77
2022/09/16 06:08:02;;;;;;;12.75;4.03;;;11.30;99.90;;;;;;6148795;23;20278;-81
2022/09/16 06:14:47;;;;;;;;;;;;;;;;;;;;;
2022/09/16 06:17:21;;;;;;;5.32;1.40;;;11.60;99.90;;;;;;6004937;23;20018;-82
2022/09/16 06:19:51;;;;;;;7.22;1.40;;;11.70;99.90;;;;;;6253819;22;20026;-81
2022/09/16 06:22:19;;;;;;;11.82;1.60;;;11.60;99.90;;;;;;6264174;22;20007;-83
2022/09/16 06:24:45;;;;;;;5.82;1.33;;;11.60;99.90;;;;;;6286939;22;20421;-82
2022/09/16 06:27:11;;;;;;;4.65;1.35;;;12.10;99.90;;;;;;6261538;22;20007;-77
2022/09/16 06:29:52;;;;;;;7.80;1.60;;;11.90;99.90;;;;;;6313802;22;20496;-80
2022/09/16 06:32:30;;;;;;;9.40;1.55;;;13.00;99.90;;;;;;6263537;22;20041;-79
2022/09/16 06:34:56;;;;;;;6.05;1.85;;;11.20;99.90;;;;;;6287783;22;20293;-80
2022/09/16 06:37:22;;;;;;;7.50;1.80;;;11.90;99.90;;;;;;6287046;22;20060;-78
2022/09/16 06:39:48;;;;;;;9.38;2.00;;;12.10;99.90;;;;;;6289171;22;20018;-80
2022/09/16 06:42:14;;;;;;;6.35;2.00;;;11.90;99.90;;;;;;6292367;22;20305;-77
2022/09/16 06:44:40;;;;;;;11.63;2.03;;;12.10;99.90;;;;;;6267456;22;20071;-81
2022/09/16 06:47:06;;;;;;;9.98;2.22;;;12.30;99.90;;;;;;6293204;22;20034;-76
2022/09/16 06:49:31;;;;;;;6.78;1.60;;;12.00;99.90;;;;;;6293339;22;20166;-79
2022/09/16 06:51:57;;;;;;;11.93;1.92;;;12.20;99.90;;;;;;6290790;22;20013;-77
2022/09/16 06:54:23;;;;;;;7.05;1.58;;;12.20;99.90;;;;;;6266343;22;20007;-80
2022/09/16 06:57:42;;;;;;;8.73;1.60;;;12.60;99.90;;;;;;6292739;22;20007;-79
2022/09/16 07:00:17;;;;;;;6.75;1.83;;;12.30;99.90;;;;;;6292490;22;20019;-79
2022/09/16 07:06:23;;;;;;;11.13;2.00;;;12.10;99.90;;;;;;6198412;23;20122;-82
2022/09/16 07:08:49;;;;;;;9.07;1.88;;;12.70;99.90;;;;;;6213864;22;20060;-80
2022/09/16 07:11:54;;;;;;;12.35;1.92;;;13.20;99.90;;;;;;6292138;22;20010;-80
2022/09/16 07:14:34;;;;;;;8.63;1.73;;;12.60;99.90;;;;;;6230982;22;20014;-79
2022/09/16 07:17:09;;;;;;;8.43;1.80;;;13.70;99.90;;;;;;6292554;22;20034;-77
2022/09/16 07:19:35;;;;;;;5.35;1.50;;;13.30;99.90;;;;;;6292367;22;20361;-81
2022/09/16 07:22:03;;;;;;;6.75;1.20;;;13.20;99.90;;;;;;6317523;22;20190;-79
2022/09/16 07:25:36;;;;;;;7.45;1.20;;;13.20;99.90;;;;;;6269211;22;20358;-77
2022/09/16 07:28:38;;;;;;;5.60;1.38;;;13.30;99.90;;;;;;6247385;23;20470;-76
2022/09/16 07:42:32;;;;;;;11.88;1.73;;;13.50;99.90;;;;;;6048648;23;20023;-80
2022/09/16 07:45:54;;;;;;;7.28;1.75;;;13.40;99.90;;;;;;6075508;23;20294;-79
2022/09/16 07:52:44;;;;;;;6.82;1.73;;;13.20;99.90;;;;;;6069814;23;20050;-76
2022/09/16 07:57:54;;;;;;;11.43;1.73;;;12.90;99.90;;;;;;6049234;23;20381;-77
2022/09/16 08:01:01;;;;;;;9.05;1.60;;;14.30;99.90;;;;;;6175509;23;20040;-76
2022/09/16 08:03:28;;;;;;;9.90;2.00;;;13.20;99.90;;;;;;6140402;23;20009;-80
2022/09/16 08:06:00;;;;;;;7.50;1.27;;;13.40;99.90;;;;;;6167000;23;20064;-78
2022/09/16 08:08:28;;;;;;;8.27;1.60;;;13.60;99.90;;;;;;6199253;23;20234;-75
2022/09/16 08:11:01;;;;;;;7.45;1.30;;;13.70;99.90;;;;;;6227313;23;20019;-76
2022/09/16 08:13:37;;;;;;;8.43;1.83;;;13.90;99.90;;;;;;6200132;23;20317;-76
2022/09/16 08:16:11;;;;;;;11.23;1.95;;;13.60;99.90;;;;;;6200808;23;20020;-77
2022/09/16 08:18:47;;;;;;;7.53;1.23;;;13.80;99.90;;;;;;6201705;23;20044;-78
2022/09/16 08:21:54;;;;;;;7.63;1.60;;;13.40;99.90;;;;;;6207435;22;20012;-78
2022/09/16 08:28:42;;;;;;;7.07;1.25;;;13.40;99.90;;;;;;6156514;22;20061;-77
2022/09/16 08:31:17;;;;;;;10.52;1.90;;;14.10;99.90;;;;;;6231756;22;20015;-78
2022/09/16 08:34:22;;;;;;;7.00;1.38;;;13.90;99.90;;;;;;6229517;22;20494;-78
2022/09/16 08:36:48;;;;;;;9.35;2.05;;;14.20;99.90;;;;;;6230619;22;20079;-77
2022/09/16 08:39:20;;;;;;;12.57;1.70;;;14.20;99.90;;;;;;6231889;22;20012;-77
2022/09/16 08:42:25;;;;;;;8.68;1.52;;;14.50;99.90;;;;;;6206609;22;20051;-77
2022/09/16 08:45:09;;;;;;;4.40;1.23;;;14.30;99.90;;;;;;6257054;22;20015;-74
2022/09/16 08:48:08;;;;;;;8.70;1.40;;;15.20;99.90;;;;;;6231346;22;20008;-76
2022/09/16 08:50:46;;;;;;;7.78;1.27;;;14.60;99.90;;;;;;6231631;22;20035;-74
2022/09/16 08:53:32;;;;;;;;;;;14.80;99.90;;;;;;6231731;22;20011;-76
2022/09/16 08:56:01;;;;;;;9.07;2.17;;;15.10;99.90;;;;;;6312599;22;19920;-74
2022/09/16 08:58:46;;;;;;;9.50;1.65;;;15.10;99.90;;;;;;6293750;22;20010;-75
2022/09/16 09:01:21;;;;;;;;;;;16.10;99.90;;;;;;6295229;22;20046;-75
2022/09/16 09:03:55;;;;;;;6.60;1.47;;;14.80;99.90;;;;;;6318818;22;19914;-77
2022/09/16 09:06:41;;;;;;;7.88;2.22;;;14.90;99.90;;;;;;6268773;22;20166;-80
2022/09/16 09:10:01;;;;;;;;;;;;;;;;;;;;;
2022/09/16 09:24:08;;;;;;;5.85;1.65;;;15.40;99.90;;;;;;6134540;22;20014;-75
2022/09/16 09:27:13;;;;;;;9.95;2.67;;;14.00;99.90;;;;;;6256283;22;20157;-83
2022/09/16 09:29:58;;;;;;;5.45;1.40;;;14.50;99.90;;;;;;6230720;22;20229;-84
2022/09/16 09:32:50;;;;;;;12.38;1.70;;;14.50;99.90;;;;;;6254932;22;20011;-79
2022/09/16 09:36:19;;;;;;;8.55;1.83;;;14.90;99.90;;;;;;6255693;22;20018;-83
2022/09/16 09:43:10;;;;;;;7.03;1.98;;;15.50;99.90;;;;;;6136823;23;20319;-85
2022/09/16 09:49:45;;;;;;;7.45;1.30;;;14.40;99.90;;;;;;6106457;23;19936;-84
2022/09/16 09:53:24;;;;;;;10.13;2.00;;;14.90;99.90;;;;;;6091261;23;20081;-83
2022/09/16 09:56:13;;;;;;;4.55;1.35;;;15.50;99.90;;;;;;6292516;22;20014;-84
2022/09/16 10:02:17;;;;;;;4.90;1.13;;;13.60;99.90;;;;;;6271046;22;20034;-89
2022/09/16 10:04:43;;;;;;;6.93;1.17;;;13.00;99.90;;;;;;6290899;22;20010;-80
2022/09/16 10:07:20;;;;;;;5.13;1.02;;;13.00;99.90;;;;;;6239738;22;20081;-76
2022/09/16 10:09:58;;;;;;;5.72;1.77;;;13.00;99.90;;;;;;6292562;22;20014;-79
2022/09/16 10:12:40;;;;;;;5.20;1.40;;;11.90;99.90;;;;;;6316612;22;20263;-77
2022/09/16 10:15:35;;;;;;;11.88;1.60;;;13.30;99.90;;;;;;6288557;22;20048;-78
2022/09/16 10:18:33;;;;;;;6.38;1.40;;;13.70;99.90;;;;;;6235578;22;20231;-81
2022/09/16 10:21:16;;;;;;;8.05;1.48;;;14.30;99.90;;;;;;6280157;22;20022;-83
2022/09/16 10:23:56;;;;;;;4.07;1.20;;;14.70;99.90;;;;;;6291598;22;20025;-82
2022/09/16 10:26:28;;;;;;;7.97;1.50;;;15.70;99.90;;;;;;6317276;22;20062;-80
2022/09/16 10:29:12;;;;;;;11.93;1.92;;;15.60;99.90;;;;;;6318292;22;20010;-80
2022/09/16 10:32:13;;;;;;;4.88;1.08;;;16.00;99.90;;;;;;6317379;22;20479;-82
2022/09/16 10:34:52;;;;;;;5.47;1.45;;;17.00;99.90;;;;;;6169667;23;20012;-80
2022/09/16 10:37:19;;;;;;;8.73;1.63;;;16.20;99.90;;;;;;6290165;22;20293;-81
2022/09/16 10:40:18;;;;;;;5.90;1.48;;;16.40;99.90;;;;;;6318572;22;20297;-81
2022/09/16 10:42:48;;;;;;;9.00;1.60;;;16.50;99.90;;;;;;6241067;22;20019;-84
2022/09/16 10:45:29;;;;;;;8.75;1.88;;;16.50;99.90;;;;;;6260355;22;20015;-79
2022/09/16 10:48:10;;;;;;;6.80;1.48;;;16.00;99.90;;;;;;6262319;22;20454;-82
2022/09/16 10:51:05;;;;;;;7.45;1.27;;;15.70;99.90;;;;;;6262691;22;20007;-80
2022/09/16 10:53:43;;;;;;;5.72;1.42;;;15.70;99.90;;;;;;6260286;22;20038;-78
2022/09/16 10:59:29;;;;;;;6.72;1.50;;;16.10;99.90;;;;;;6282843;22;20051;-84
2022/09/16 11:02:32;;;;;;;8.45;1.42;;;16.60;99.90;;;;;;6237062;22;20305;-85
2022/09/16 11:05:41;;;;;;;7.18;1.27;;;16.80;99.90;;;;;;6263666;22;20013;-86
2022/09/16 11:08:30;;;;;;;7.63;1.98;;;16.70;99.90;;;;;;6261028;22;20033;-86
2022/09/16 11:11:23;;;;;;;9.25;1.55;;;16.90;99.90;;;;;;6214935;22;20019;-81
2022/09/16 11:14:34;;;;;;;10.90;2.25;;;16.70;99.90;;;;;;6261428;22;20017;-79
2022/09/16 11:17:39;;;;;;;7.38;1.40;;;13.60;99.90;;;;;;6260650;22;20008;-82
2022/09/16 11:20:22;;;;;;;8.38;1.60;;;11.70;99.90;;;;;;6259952;22;20427;-79
2022/09/16 11:27:08;;;;;;;10.63;2.15;;;12.00;99.90;;;;;;6198534;23;20012;-80
2022/09/16 11:33:58;;;;;;;7.28;1.48;;;14.10;99.90;;;;;;6193096;23;20017;-83
2022/09/16 11:36:52;;;;;;;11.57;2.03;;;14.60;99.90;;;;;;6244165;22;20049;-81
2022/09/16 11:47:29;;;;;;;8.43;2.20;;;14.80;99.90;;;;;;6254235;22;20011;-82
2022/09/16 12:02:29;;;;;;;14.48;2.15;;;15.40;99.90;;;;;;6072693;23;20201;-84
2022/09/16 12:05:48;;;;;;;9.70;2.10;;;15.50;99.90;;;;;;5996269;23;20015;-80
2022/09/16 12:13:15;;;;;;;;;;;;;;;;;;;;;
2022/09/16 12:36:26;;;;;;;10.80;2.53;;;15.70;99.90;;;;;;5974357;22;4085019;-79
2022/09/16 12:38:52;;;;;;;12.38;2.38;;;15.80;99.90;;;;;;6115061;23;20277;-81
2022/09/16 12:41:24;;;;;;;12.65;2.55;;;15.90;99.90;;;;;;6091522;23;20292;-78
2022/09/16 12:44:32;;;;;;;9.68;2.00;;;15.70;99.90;;;;;;6115484;23;20044;-81
2022/09/16 12:47:10;;;;;;;10.10;2.00;;;15.70;99.90;;;;;;6113415;23;20017;-80
2022/09/16 12:53:31;;;;;;;10.95;2.22;;;14.80;99.90;;;;;;6137829;23;20025;-82
2022/09/16 12:56:15;;;;;;;5.72;1.58;;;15.90;99.90;;;;;;6114568;23;20009;-82
2022/09/16 12:58:53;;;;;;;12.23;2.17;;;15.10;99.90;;;;;;6114563;23;20047;-82
2022/09/16 13:01:49;;;;;;;8.30;1.65;;;15.10;99.90;;;;;;6115277;23;20013;-82
2022/09/16 13:04:22;;;;;;;6.72;1.20;;;15.30;99.90;;;;;;6110094;23;20009;-83
2022/09/16 13:07:32;;;;;;;;;;;;;;;;;;;;;
2022/09/16 13:10:35;;;;;;;8.15;1.63;;;15.20;99.90;;;;;;6136996;23;20072;-83
2022/09/16 13:14:03;;;;;;;6.00;1.63;;;15.30;99.90;;;;;;6118313;23;20224;-86
2022/09/16 13:20:17;;;;;;;;;;;;;;;;;;;;;
2022/09/16 13:23:37;;;;;;;;;;;;;;;;;;;;;
2022/09/16 13:26:48;;;;;;;8.15;1.20;;;13.30;99.90;;;;;;5996415;24;20043;-82
2022/09/16 13:29:49;;;;;;;;;;;;;;;;;;;;;
2022/09/16 13:41:31;;;;;;;;;;;;;;;;;;;;;
2022/09/16 13:52:12;;;;;;;;;;;;;;;;;;;;;
2022/09/16 13:58:33;;;;;;;5.15;1.27;;;13.60;99.90;;;;;;5909197;24;20242;-79
2022/09/16 14:01:28;;;;;;;5.10;1.45;;;13.90;99.90;;;;;;5903618;23;20032;-83
2022/09/16 14:04:23;;;;;;;6.25;1.13;;;13.90;99.90;;;;;;6107580;23;20010;-80
2022/09/16 14:07:06;;;;;;;6.10;1.40;;;14.00;99.90;;;;;;6109911;23;20380;-78
2022/09/16 14:09:32;;;;;;;5.72;1.20;;;14.10;99.90;;;;;;6108148;23;20065;-80
2022/09/16 14:12:17;;;;;;;9.77;2.30;;;14.30;99.90;;;;;;6104673;23;20057;-80
2022/09/16 14:14:43;;;;;;;9.45;1.60;;;14.30;99.90;;;;;;6129423;23;20045;-79
2022/09/16 14:17:27;;;;;;;9.57;1.58;;;14.40;99.90;;;;;;6128558;23;20049;-78
2022/09/16 14:19:58;;;;;;;11.85;1.80;;;14.40;99.90;;;;;;6102993;23;20133;-79
2022/09/16 14:22:26;;;;;;;6.93;1.58;;;14.40;99.90;;;;;;6103567;23;20014;-80
2022/09/16 14:24:53;;;;;;;6.72;1.63;;;14.40;99.90;;;;;;6104525;23;20018;-77
2022/09/16 14:27:21;;;;;;;10.20;1.65;;;14.30;99.90;;;;;;6104896;23;20101;-77
2022/09/16 14:29:59;;;;;;;6.55;1.30;;;14.40;99.90;;;;;;6127492;23;20009;-81
2022/09/16 14:32:30;;;;;;;8.15;1.50;;;14.40;99.90;;;;;;6130225;23;20037;-76
2022/09/16 14:34:58;;;;;;;8.15;1.85;;;14.30;99.90;;;;;;6108597;23;20241;-82
2022/09/16 14:37:27;;;;;;;8.10;1.67;;;14.00;99.90;;;;;;6106427;23;20032;-78
2022/09/16 14:40:02;;;;;;;8.38;1.98;;;13.80;99.90;;;;;;6107248;23;20217;-77
2022/09/16 14:42:29;;;;;;;8.15;1.65;;;13.60;99.90;;;;;;6083277;23;20068;-77
2022/09/16 14:44:57;;;;;;;10.25;1.45;;;13.50;99.90;;;;;;6131034;23;20010;-79
2022/09/16 14:47:35;;;;;;;6.38;1.40;;;13.50;99.90;;;;;;6083365;23;20017;-75
2022/09/16 14:50:11;;;;;;;4.82;1.60;;;13.70;99.90;;;;;;6106840;23;20068;-76
2022/09/16 14:52:37;;;;;;;8.95;1.45;;;13.80;99.90;;;;;;6106793;23;20041;-80
2022/09/16 14:55:25;;;;;;;7.20;1.45;;;13.60;99.90;;;;;;6107143;23;20197;-80
2022/09/16 14:57:51;;;;;;;7.90;1.23;;;13.60;99.90;;;;;;6131114;23;20022;-79
2022/09/16 15:00:20;;;;;;;5.90;1.60;;;13.60;99.90;;;;;;6082436;23;20390;-78
2022/09/16 15:03:01;;;;;;;4.90;1.60;;;13.50;99.90;;;;;;6131104;23;20205;-79
2022/09/16 15:05:34;;;;;;;7.53;1.63;;;13.40;99.90;;;;;;6106927;23;20208;-77
2022/09/16 15:08:17;;;;;;;6.78;1.65;;;13.40;99.90;;;;;;6129433;23;20014;-77
2022/09/16 15:10:53;;;;;;;6.50;1.13;;;13.60;99.90;;;;;;6104841;23;20147;-77
2022/09/16 15:13:23;;;;;;;5.40;1.42;;;13.60;99.90;;;;;;6107010;23;20018;-77
2022/09/16 15:15:52;;;;;;;8.30;1.30;;;13.70;99.90;;;;;;6131504;23;20077;-81
2022/09/16 15:18:28;;;;;;;4.20;1.35;;;13.90;99.90;;;;;;6130978;23;20014;-78
2022/09/16 15:21:04;;;;;;;5.70;1.35;;;13.90;99.90;;;;;;6106230;23;20014;-81
2022/09/16 15:23:32;;;;;;;5.63;1.30;;;13.90;99.90;;;;;;6131696;23;20037;-82
2022/09/16 15:26:17;;;;;;;7.75;1.40;;;13.80;99.90;;;;;;6107625;23;20005;-79
2022/09/16 15:28:53;;;;;;;6.78;1.30;;;13.60;99.90;;;;;;6131294;23;20045;-80
2022/09/16 15:31:33;;;;;;;13.02;1.92;;;13.60;99.90;;;;;;6106657;23;20018;-82
2022/09/16 15:34:01;;;;;;;8.15;1.55;;;13.60;99.90;;;;;;6085195;23;20203;-80
2022/09/16 15:36:31;;;;;;;9.88;1.95;;;13.40;99.90;;;;;;6107897;23;20207;-78
2022/09/16 15:38:57;;;;;;;6.93;1.45;;;13.20;99.90;;;;;;6083248;23;20013;-77
2022/09/16 15:41:23;;;;;;;10.30;2.15;;;13.30;99.90;;;;;;6032560;23;20105;-80
2022/09/16 15:43:49;;;;;;;9.55;1.60;;;13.50;99.90;;;;;;6082700;23;20049;-76
2022/09/16 15:46:22;;;;;;;7.47;1.70;;;13.40;99.90;;;;;;6059352;23;20204;-77
2022/09/16 15:48:51;;;;;;;8.57;1.80;;;13.50;99.90;;;;;;6082110;23;20041;-73
2022/09/16 15:51:36;;;;;;;8.38;1.40;;;13.30;99.90;;;;;;6081928;23;20018;-77
2022/09/16 15:54:17;;;;;;;7.63;1.88;;;13.50;99.90;;;;;;6107064;23;20014;-80
2022/09/16 15:57:08;;;;;;;9.05;2.15;;;13.20;99.90;;;;;;6106514;23;20300;-76
2022/09/16 15:59:56;;;;;;;7.60;1.80;;;12.90;99.90;;;;;;6105684;23;20066;-77
2022/09/16 16:02:36;;;;;;;8.10;2.22;;;13.70;99.90;;;;;;6081249;23;20078;-79
2022/09/16 16:05:23;;;;;;;10.75;1.98;;;13.40;99.90;;;;;;6103881;23;20220;-76
2022/09/16 16:07:51;;;;;;;18.23;2.63;;;12.90;99.90;;;;;;6083427;23;20065;-77
2022/09/16 16:10:26;;;;;;;6.32;1.58;;;13.30;99.90;;;;;;6082529;23;20303;-80
2022/09/16 16:12:53;;;;;;;7.22;1.42;;;12.90;99.90;;;;;;6083213;23;20073;-75
2022/09/16 16:15:38;;;;;;;10.15;2.00;;;12.80;99.90;;;;;;6084032;23;20249;-78
2022/09/16 16:18:05;;;;;;;;;;;13.70;99.90;;;;;;6082335;23;20018;-80
2022/09/16 16:20:33;;;;;;;9.23;1.80;;;13.40;99.90;;;;;;6083325;23;19913;-78
2022/09/16 16:23:00;;;;;;;11.95;2.03;;;13.00;99.90;;;;;;6107676;23;20017;-76
2022/09/16 16:25:26;;;;;;;9.93;1.58;;;13.80;99.90;;;;;;6107469;23;20010;-76
2022/09/16 16:27:52;;;;;;;10.68;1.67;;;13.00;99.90;;;;;;6058006;23;20021;-79
2022/09/16 16:30:18;;;;;;;17.00;1.73;;;13.90;99.90;;;;;;6059432;23;20351;-79
2022/09/16 16:32:44;;;;;;;10.25;2.03;;;13.90;99.90;;;;;;6106527;23;20046;-75
2022/09/16 16:35:11;;;;;;;11.50;1.90;;;13.90;99.90;;;;;;6117216;23;20013;-78
2022/09/16 16:37:37;;;;;;;13.20;2.28;;;14.00;99.90;;;;;;6104946;23;20084;-76
2022/09/16 16:40:05;;;;;;;10.82;2.00;;;13.80;99.90;;;;;;6104529;23;20010;-77
2022/09/16 16:42:30;;;;;;;12.07;2.00;;;13.80;99.90;;;;;;6104558;23;20111;-78
2022/09/16 16:44:56;;;;;;;11.65;1.90;;;14.10;99.90;;;;;;6103102;23;20021;-79
2022/09/16 16:47:22;;;;;;;19.77;2.72;;;13.20;99.90;;;;;;6078625;23;20064;-80
2022/09/16 16:49:49;;;;;;;7.85;2.38;;;14.00;99.90;;;;;;6104104;23;20021;-77
2022/09/16 16:52:17;;;;;;;13.60;1.70;;;13.40;99.90;;;;;;6103809;23;20211;-78
2022/09/16 16:54:45;;;;;;;10.75;1.95;;;13.40;99.90;;;;;;6102376;23;20042;-77
2022/09/16 16:57:13;;;;;;;12.55;1.98;;;13.70;99.90;;;;;;6102625;23;20041;-78
2022/09/16 16:59:39;;;;;;;13.13;2.55;;;13.80;99.90;;;;;;6127351;23;20006;-79
2022/09/16 17:02:05;;;;;;;9.00;2.03;;;14.60;99.90;;;;;;6078967;23;20388;-79
2022/09/16 17:04:31;;;;;;;14.80;2.42;;;14.30;99.90;;;;;;6126725;23;20033;-76
2022/09/16 17:06:56;;;;;;;11.65;2.10;;;14.10;99.90;;;;;;6106769;23;20010;-76
2022/09/16 17:09:23;;;;;;;14.07;2.75;;;13.30;99.90;;;;;;6060650;23;20022;-78
2022/09/16 17:11:59;;;;;;;14.55;1.90;;;13.70;99.90;;;;;;6084611;23;20072;-77
2022/09/16 17:14:29;;;;;;;8.80;1.67;;;13.30;99.90;;;;;;6085565;23;20014;-78
2022/09/16 17:16:58;;;;;;;10.25;1.67;;;14.10;99.90;;;;;;6130699;23;20045;-76